Time;durP1;ratioP1;P1;durP2;ratioP2;P2;SDS_P1;SDS_P2;PMS_P1;PMS_P2;Temp;Humidity;BMP_temperature;BMP_pressure;BME280_temperature;BME280_humidity;BME280_pressure;Samples;Min_cycle;Max_cycle;Signal;HPM_P1;HPM_P2
2023/08/02 00:00:34;;;;;;;9.85;4.53;;;14.80;1.00;;;;;;4997625;28;20226;-91
2023/08/02 00:03:01;;;;;;;10.10;4.75;;;14.80;1.00;;;;;;5014430;28;20280;-91
2023/08/02 00:05:28;;;;;;;9.68;4.15;;;14.80;1.00;;;;;;5006251;28;20628;-91
2023/08/02 00:07:55;;;;;;;10.45;4.32;;;14.80;1.00;;;;;;5016447;28;20660;-91
2023/08/02 00:10:21;;;;;;;9.57;5.15;;;14.80;1.00;;;;;;5015092;28;20197;-90
2023/08/02 00:12:50;;;;;;;8.15;4.25;;;14.80;1.00;;;;;;5013921;28;20209;-90
2023/08/02 00:15:18;;;;;;;10.43;4.00;;;14.70;1.00;;;;;;5008512;28;20208;-91
2023/08/02 00:17:45;;;;;;;7.10;4.32;;;14.70;1.00;;;;;;5016540;28;20210;-91
2023/08/02 00:20:12;;;;;;;9.07;4.55;;;14.70;1.00;;;;;;5015959;28;20232;-91
2023/08/02 00:22:39;;;;;;;12.40;4.50;;;14.70;1.00;;;;;;5005417;28;20205;-91
2023/08/02 00:25:07;;;;;;;9.73;4.70;;;14.70;1.00;;;;;;5016486;28;20206;-91
2023/08/02 00:27:33;;;;;;;7.85;3.92;;;14.60;1.00;;;;;;5015552;28;20682;-91
2023/08/02 00:30:00;;;;;;;11.75;4.40;;;14.70;1.00;;;;;;5016488;28;20200;-92
2023/08/02 00:32:28;;;;;;;8.32;4.38;;;14.70;1.00;;;;;;5012225;28;20211;-91
2023/08/02 00:34:55;;;;;;;8.88;4.50;;;14.60;1.00;;;;;;4996655;28;20288;-91
2023/08/02 00:37:22;;;;;;;7.47;4.17;;;14.60;1.00;;;;;;5016048;28;20194;-90
2023/08/02 00:39:51;;;;;;;10.47;4.10;;;14.70;1.00;;;;;;5015499;28;20685;-91
2023/08/02 00:42:19;;;;;;;7.33;4.27;;;14.60;1.00;;;;;;5006917;28;20195;-91
2023/08/02 00:44:46;;;;;;;9.20;4.60;;;14.60;1.00;;;;;;5014015;28;20199;-92
2023/08/02 00:47:13;;;;;;;9.10;4.40;;;14.60;1.00;;;;;;5013762;28;20189;-91
2023/08/02 00:49:41;;;;;;;9.57;4.50;;;14.70;1.00;;;;;;5009768;28;20316;-91
2023/08/02 00:52:08;;;;;;;6.83;4.10;;;14.60;1.00;;;;;;5002239;28;20210;-91
2023/08/02 00:54:35;;;;;;;7.93;4.50;;;14.70;1.00;;;;;;5016115;28;20236;-91
2023/08/02 00:57:02;;;;;;;10.17;4.43;;;14.70;1.00;;;;;;5015151;28;20285;-91
2023/08/02 00:59:29;;;;;;;6.10;4.50;;;14.60;1.00;;;;;;5013662;28;20203;-91
2023/08/02 01:01:56;;;;;;;7.07;4.93;;;14.70;1.00;;;;;;5013503;28;20216;-92
2023/08/02 01:04:23;;;;;;;11.37;4.90;;;14.70;1.00;;;;;;5014513;28;20207;-92
2023/08/02 01:06:58;;;;;;;9.20;4.60;;;14.70;1.00;;;;;;5014089;28;20206;-92
2023/08/02 01:09:29;;;;;;;6.78;4.63;;;14.60;1.00;;;;;;5006629;28;20203;-91
2023/08/02 01:12:08;;;;;;;8.30;4.67;;;14.60;1.00;;;;;;5010820;28;20563;-90
2023/08/02 01:14:37;;;;;;;10.43;4.93;;;14.70;1.00;;;;;;5014695;28;20206;-91
2023/08/02 01:17:05;;;;;;;11.88;5.05;;;14.70;1.00;;;;;;5014289;28;20247;-91
2023/08/02 01:19:32;;;;;;;10.05;5.18;;;14.60;1.00;;;;;;5013675;28;20574;-91
2023/08/02 01:22:01;;;;;;;9.47;4.70;;;14.70;1.00;;;;;;5010106;28;20642;-90
2023/08/02 01:24:35;;;;;;;6.70;4.73;;;14.70;1.00;;;;;;5006930;28;20772;-90
2023/08/02 01:27:08;;;;;;;8.90;5.37;;;14.60;1.00;;;;;;5014657;28;20288;-91
2023/08/02 01:29:38;;;;;;;10.23;4.90;;;14.60;1.00;;;;;;5013108;28;20686;-91
2023/08/02 01:32:07;;;;;;;8.57;5.83;;;14.60;1.00;;;;;;5013083;28;20199;-89
2023/08/02 01:34:34;;;;;;;8.63;4.87;;;14.50;1.00;;;;;;5001216;28;20205;-91
2023/08/02 01:37:02;;;;;;;8.07;4.80;;;14.50;1.00;;;;;;5013314;28;20233;-91
2023/08/02 01:39:29;;;;;;;13.50;5.07;;;14.50;1.00;;;;;;5011896;28;20227;-92
2023/08/02 01:41:56;;;;;;;9.23;4.80;;;14.50;1.00;;;;;;5008390;28;20312;-90
2023/08/02 01:44:23;;;;;;;8.15;4.93;;;14.50;1.00;;;;;;5012964;28;20267;-91
2023/08/02 01:46:50;;;;;;;8.27;4.50;;;14.50;1.00;;;;;;5014530;28;20283;-91
2023/08/02 01:49:16;;;;;;;6.90;4.20;;;14.40;1.00;;;;;;5012180;28;20228;-89
2023/08/02 01:51:43;;;;;;;12.00;4.40;;;14.40;1.00;;;;;;4996403;28;20307;-91
2023/08/02 01:54:11;;;;;;;9.80;4.70;;;14.30;1.00;;;;;;4988760;28;20689;-90
2023/08/02 01:56:38;;;;;;;11.73;5.23;;;14.30;1.00;;;;;;5001386;28;20225;-91
2023/08/02 01:59:05;;;;;;;9.97;4.87;;;14.30;1.00;;;;;;5002107;28;20292;-90
2023/08/02 02:01:32;;;;;;;9.47;4.80;;;14.30;1.00;;;;;;4995294;28;20222;-90
2023/08/02 02:03:59;;;;;;;9.67;5.27;;;14.20;1.00;;;;;;4993946;28;20279;-92
2023/08/02 02:06:26;;;;;;;12.87;5.40;;;14.20;1.00;;;;;;4998903;28;20590;-91
2023/08/02 02:08:52;;;;;;;8.73;5.10;;;14.20;1.00;;;;;;4995091;28;20199;-92
2023/08/02 02:11:20;;;;;;;10.60;5.10;;;14.20;1.00;;;;;;5005250;28;20192;-91
2023/08/02 02:13:47;;;;;;;11.63;5.20;;;14.20;1.00;;;;;;4994019;28;20203;-90
2023/08/02 02:16:14;;;;;;;7.67;5.10;;;14.20;1.00;;;;;;5001438;28;20298;-90
2023/08/02 02:18:41;;;;;;;8.93;4.90;;;14.30;1.00;;;;;;4990963;28;20290;-91
2023/08/02 02:21:08;;;;;;;9.50;5.53;;;14.30;1.00;;;;;;4992303;28;20605;-91
2023/08/02 02:23:35;;;;;;;9.30;5.10;;;14.40;1.00;;;;;;4998879;28;20691;-90
2023/08/02 02:26:01;;;;;;;11.15;6.15;;;14.40;1.00;;;;;;4993188;28;20207;-91
2023/08/02 02:28:30;;;;;;;10.05;5.57;;;14.40;1.00;;;;;;4994897;28;20205;-90
2023/08/02 02:30:56;;;;;;;11.48;5.57;;;14.40;1.00;;;;;;4994301;28;20205;-90
2023/08/02 02:33:23;;;;;;;10.70;4.72;;;14.40;1.00;;;;;;5000117;28;20291;-90
2023/08/02 02:35:50;;;;;;;15.07;5.40;;;14.50;1.00;;;;;;4995675;28;20204;-91
2023/08/02 02:38:17;;;;;;;8.65;4.80;;;14.50;1.00;;;;;;4991613;28;20217;-92
2023/08/02 02:40:44;;;;;;;7.87;4.73;;;14.60;1.00;;;;;;4999019;28;20302;-92
2023/08/02 02:43:11;;;;;;;11.10;5.13;;;14.60;1.00;;;;;;4997025;28;20745;-92
2023/08/02 02:45:39;;;;;;;9.23;4.77;;;14.60;1.00;;;;;;4996873;28;20222;-90
2023/08/02 02:48:06;;;;;;;12.93;5.20;;;14.60;99.90;;;;;;5004560;28;20193;-91
2023/08/02 02:50:33;;;;;;;12.07;4.93;;;14.60;99.90;;;;;;5011204;28;20259;-90
2023/08/02 02:53:00;;;;;;;7.50;4.50;;;14.70;99.90;;;;;;5013706;28;20211;-91
2023/08/02 02:55:27;;;;;;;10.60;5.10;;;14.70;99.90;;;;;;5009396;28;20293;-90
2023/08/02 02:57:54;;;;;;;8.17;5.13;;;14.70;99.90;;;;;;5011258;28;20259;-91
2023/08/02 03:00:20;;;;;;;11.37;4.80;;;14.70;99.90;;;;;;5011083;28;20663;-90
2023/08/02 03:02:48;;;;;;;9.93;4.78;;;14.60;99.90;;;;;;5011054;28;20602;-88
2023/08/02 03:05:15;;;;;;;9.63;5.40;;;14.60;99.90;;;;;;5015813;28;20199;-89
2023/08/02 03:07:42;;;;;;;10.80;5.00;;;14.60;99.90;;;;;;5010333;28;20739;-91
2023/08/02 03:10:09;;;;;;;8.53;5.07;;;14.60;99.90;;;;;;5014732;28;20199;-90
2023/08/02 03:12:36;;;;;;;11.00;5.00;;;14.60;1.00;;;;;;5014076;28;20212;-91
2023/08/02 03:15:03;;;;;;;9.83;5.07;;;14.60;1.00;;;;;;5016913;28;20197;-90
2023/08/02 03:17:30;;;;;;;9.43;4.93;;;14.70;99.90;;;;;;5015577;28;20200;-91
2023/08/02 03:19:58;;;;;;;9.00;5.20;;;14.70;99.90;;;;;;5011021;28;20205;-91
2023/08/02 03:22:25;;;;;;;10.37;4.93;;;14.80;99.90;;;;;;5015593;28;20306;-91
2023/08/02 03:24:52;;;;;;;9.95;4.95;;;14.80;99.90;;;;;;5013823;28;20207;-90
2023/08/02 03:27:19;;;;;;;6.53;4.90;;;14.90;99.90;;;;;;5012002;28;20280;-91
2023/08/02 03:29:46;;;;;;;9.37;5.10;;;14.90;99.90;;;;;;5013846;28;20311;-92
2023/08/02 03:32:12;;;;;;;12.35;5.38;;;15.00;99.90;;;;;;5016001;28;20213;-92
2023/08/02 03:34:39;;;;;;;9.50;5.28;;;15.00;99.90;;;;;;5012218;28;20206;-91
2023/08/02 03:37:07;;;;;;;10.90;5.72;;;15.00;99.90;;;;;;5015608;28;20205;-90
2023/08/02 03:39:34;;;;;;;9.32;5.40;;;15.10;88.30;;;;;;5013462;28;20201;-91
2023/08/02 03:42:01;;;;;;;9.98;5.35;;;15.20;12.40;;;;;;5013869;28;20219;-90
2023/08/02 03:44:28;;;;;;;7.32;4.93;;;15.20;1.00;;;;;;5015897;28;20197;-91
2023/08/02 03:46:55;;;;;;;7.90;4.35;;;15.20;1.00;;;;;;5015156;28;20291;-91
2023/08/02 03:49:22;;;;;;;7.10;4.70;;;15.20;1.00;;;;;;5011124;28;20668;-91
2023/08/02 03:51:49;;;;;;;11.65;4.70;;;15.30;1.00;;;;;;5015809;28;20677;-90
2023/08/02 03:54:17;;;;;;;8.23;5.15;;;15.30;1.00;;;;;;5016931;28;20202;-92
2023/08/02 03:56:44;;;;;;;10.93;4.85;;;15.30;1.00;;;;;;5015420;28;20216;-90
2023/08/02 03:59:11;;;;;;;7.70;4.88;;;15.40;1.00;;;;;;5012468;28;20212;-91
2023/08/02 04:01:38;;;;;;;8.25;4.78;;;15.40;1.00;;;;;;5015589;28;20307;-91
2023/08/02 04:04:05;;;;;;;10.68;4.93;;;15.40;1.00;;;;;;5016006;28;20198;-91
2023/08/02 04:06:31;;;;;;;8.13;4.72;;;15.40;1.00;;;;;;5014457;28;20211;-91
2023/08/02 04:08:58;;;;;;;10.25;4.63;;;15.50;1.00;;;;;;5008891;28;20284;-91
2023/08/02 04:11:26;;;;;;;10.02;4.78;;;15.50;1.00;;;;;;5012339;28;20665;-92
2023/08/02 04:13:53;;;;;;;5.88;4.70;;;15.60;99.90;;;;;;5010432;28;20646;-90
2023/08/02 04:16:20;;;;;;;7.70;5.07;;;15.60;99.90;;;;;;5007670;28;20296;-90
2023/08/02 04:18:47;;;;;;;9.18;4.50;;;15.60;99.90;;;;;;5015340;28;20200;-91
2023/08/02 04:21:18;;;;;;;6.05;4.50;;;15.70;99.90;;;;;;5010308;28;20228;-91
2023/08/02 04:23:45;;;;;;;5.53;4.35;;;15.70;99.90;;;;;;5016369;28;20225;-90
2023/08/02 04:26:12;;;;;;;9.30;5.20;;;15.70;99.90;;;;;;5013286;28;20211;-91
2023/08/02 04:28:40;;;;;;;9.68;4.53;;;15.70;99.90;;;;;;5016167;28;20205;-91
2023/08/02 04:31:07;;;;;;;7.95;4.43;;;15.80;52.40;;;;;;5014301;28;20202;-91
2023/08/02 04:33:34;;;;;;;9.05;4.75;;;15.90;1.00;;;;;;5011687;28;20200;-91
2023/08/02 04:36:01;;;;;;;10.82;5.03;;;15.90;1.00;;;;;;5014868;28;20658;-94
2023/08/02 04:38:28;;;;;;;7.05;4.63;;;15.90;1.00;;;;;;5003846;28;20200;-93
2023/08/02 04:40:55;;;;;;;9.27;6.10;;;16.00;1.00;;;;;;5015385;28;20284;-91
2023/08/02 04:43:21;;;;;;;8.02;4.55;;;16.10;1.00;;;;;;5014715;28;20201;-93
2023/08/02 04:45:50;;;;;;;6.95;3.90;;;16.30;1.00;;;;;;5010849;28;20211;-92
2023/08/02 04:48:17;;;;;;;8.77;4.97;;;16.40;1.00;;;;;;5006753;28;20200;-92
2023/08/02 04:50:44;;;;;;;5.07;3.70;;;16.60;1.00;;;;;;5006613;28;20281;-91
2023/08/02 04:53:11;;;;;;;11.57;4.13;;;16.80;1.00;;;;;;5014825;28;20197;-90
2023/08/02 04:55:42;;;;;;;7.40;3.97;;;17.00;99.90;;;;;;5015003;28;20205;-91
2023/08/02 04:58:09;;;;;;;4.15;3.72;;;17.00;99.90;;;;;;5013348;28;20207;-93
2023/08/02 05:00:36;;;;;;;8.73;4.22;;;17.10;99.90;;;;;;5009344;28;20229;-91
2023/08/02 05:03:04;;;;;;;12.10;4.15;;;17.20;99.90;;;;;;5012755;28;20218;-91
2023/08/02 05:05:31;;;;;;;6.38;4.15;;;17.40;99.90;;;;;;5004331;28;20572;-93
2023/08/02 05:07:58;;;;;;;9.50;4.05;;;17.60;1.00;;;;;;5014878;28;20199;-92
2023/08/02 05:10:25;;;;;;;7.03;3.78;;;17.70;1.00;;;;;;5010630;28;20200;-91
2023/08/02 05:12:51;;;;;;;6.32;3.55;;;17.90;1.00;;;;;;5014537;28;20572;-91
2023/08/02 05:15:18;;;;;;;10.07;3.83;;;18.00;99.90;;;;;;5014509;28;20210;-90
2023/08/02 05:17:45;;;;;;;6.88;3.70;;;18.00;99.90;;;;;;5011593;28;20278;-91
2023/08/02 05:20:13;;;;;;;6.00;3.53;;;18.00;1.00;;;;;;5009727;28;20209;-91
2023/08/02 05:22:40;;;;;;;5.22;3.88;;;18.10;1.00;;;;;;5006237;28;20221;-91
2023/08/02 05:25:08;;;;;;;6.88;3.65;;;18.20;1.00;;;;;;5013340;28;20205;-90
2023/08/02 05:27:35;;;;;;;4.00;3.38;;;18.20;99.90;;;;;;5009945;28;20574;-92
2023/08/02 05:30:02;;;;;;;5.93;3.90;;;18.20;99.90;;;;;;5011120;28;20202;-91
2023/08/02 05:32:29;;;;;;;7.63;3.83;;;18.30;69.90;;;;;;5006683;28;20187;-90
2023/08/02 05:34:57;;;;;;;5.75;3.45;;;18.40;1.00;;;;;;5012154;28;20206;-90
2023/08/02 05:37:25;;;;;;;5.00;3.30;;;18.40;1.00;;;;;;5013327;28;20293;-91
2023/08/02 05:39:52;;;;;;;7.60;3.30;;;18.60;1.00;;;;;;5011125;28;20293;-90
2023/08/02 05:42:18;;;;;;;6.13;3.65;;;18.70;1.00;;;;;;5011699;28;20217;-90
2023/08/02 05:44:45;;;;;;;5.65;3.20;;;18.70;99.90;;;;;;5012887;28;20204;-91
2023/08/02 05:47:12;;;;;;;5.63;3.60;;;18.80;1.00;;;;;;5005526;28;20220;-90
2023/08/02 05:49:39;;;;;;;5.03;3.50;;;18.90;1.00;;;;;;5010230;28;20238;-89
2023/08/02 05:52:06;;;;;;;8.23;3.60;;;18.90;1.00;;;;;;5004763;28;20667;-90
2023/08/02 05:54:34;;;;;;;6.43;3.60;;;19.00;1.00;;;;;;5013733;28;20215;-90
2023/08/02 05:57:01;;;;;;;6.65;3.50;;;19.10;99.90;;;;;;5012394;28;20202;-89
2023/08/02 05:59:28;;;;;;;4.80;3.38;;;19.10;99.90;;;;;;5012355;28;20198;-90
2023/08/02 06:01:55;;;;;;;10.88;4.07;;;19.20;91.90;;;;;;5013324;28;20225;-89
2023/08/02 06:04:22;;;;;;;6.57;3.60;;;19.40;1.00;;;;;;5004773;28;20298;-90
2023/08/02 06:06:48;;;;;;;4.35;3.40;;;19.50;1.00;;;;;;5002264;28;20559;-90
2023/08/02 06:09:15;;;;;;;6.25;3.25;;;19.40;1.00;;;;;;5012588;28;20557;-90
2023/08/02 06:11:43;;;;;;;8.85;3.75;;;19.30;1.00;;;;;;5013423;28;20200;-90
2023/08/02 06:14:10;;;;;;;5.45;4.18;;;19.10;1.00;;;;;;5011159;28;20194;-91
2023/08/02 06:16:37;;;;;;;7.15;4.05;;;18.90;1.00;;;;;;5011984;28;20194;-90
2023/08/02 06:19:04;;;;;;;5.50;3.45;;;18.70;1.00;;;;;;5010902;28;20240;-90
2023/08/02 06:21:31;;;;;;;4.97;3.88;;;18.50;1.00;;;;;;5011417;28;20195;-90
2023/08/02 06:23:57;;;;;;;5.03;4.03;;;18.40;99.90;;;;;;5013391;28;20194;-90
2023/08/02 06:26:24;;;;;;;5.35;3.90;;;18.30;1.00;;;;;;5012720;28;20216;-90
2023/08/02 06:28:52;;;;;;;6.93;4.90;;;18.20;1.00;;;;;;5010844;28;20191;-89
2023/08/02 06:31:19;;;;;;;8.57;4.20;;;18.20;43.60;;;;;;5001469;28;20198;-90
2023/08/02 06:33:46;;;;;;;11.48;4.45;;;18.30;99.90;;;;;;5012792;28;20194;-89
2023/08/02 06:36:13;;;;;;;6.18;4.47;;;18.40;99.90;;;;;;5007440;28;20201;-90
2023/08/02 06:38:40;;;;;;;9.95;4.38;;;18.50;99.90;;;;;;5014250;28;20698;-90
2023/08/02 06:41:07;;;;;;;6.03;4.00;;;18.50;99.90;;;;;;5015610;28;20664;-88
2023/08/02 06:43:34;;;;;;;8.30;3.88;;;18.60;99.90;;;;;;5010079;28;20217;-90
2023/08/02 06:46:02;;;;;;;7.22;3.53;;;18.60;36.40;;;;;;5008252;28;20209;-89
2023/08/02 06:48:30;;;;;;;5.22;3.17;;;18.70;97.60;;;;;;5016426;28;20226;-90
2023/08/02 06:50:56;;;;;;;4.38;3.28;;;18.70;1.00;;;;;;5014204;28;20230;-90
2023/08/02 06:53:23;;;;;;;8.52;4.05;;;18.70;1.00;;;;;;5012564;28;20201;-90
2023/08/02 06:55:50;;;;;;;6.22;3.45;;;18.80;1.00;;;;;;5014723;28;20190;-91
2023/08/02 06:58:17;;;;;;;13.07;9.45;;;18.90;1.00;;;;;;5016439;28;20589;-90
2023/08/02 07:00:44;;;;;;;8.07;2.80;;;19.00;1.00;;;;;;5009607;28;20201;-89
2023/08/02 07:03:12;;;;;;;6.82;3.40;;;19.10;1.00;;;;;;5015312;28;20215;-89
2023/08/02 07:05:39;;;;;;;5.78;3.70;;;19.10;1.00;;;;;;5011749;28;20293;-91
2023/08/02 07:08:06;;;;;;;6.72;2.97;;;19.20;1.00;;;;;;5007383;28;20197;-88
2023/08/02 07:10:33;;;;;;;7.47;3.70;;;19.30;1.00;;;;;;5015585;28;20218;-89
2023/08/02 07:13:00;;;;;;;7.82;3.60;;;19.40;99.90;;;;;;5014421;28;20194;-89
2023/08/02 07:15:27;;;;;;;9.35;3.85;;;19.50;99.90;;;;;;5010937;28;20197;-90
2023/08/02 07:17:53;;;;;;;10.25;4.10;;;19.60;1.00;;;;;;5014543;28;20565;-90
2023/08/02 07:20:22;;;;;;;5.20;3.38;;;19.70;1.00;;;;;;5008412;28;20201;-89
2023/08/02 07:22:48;;;;;;;7.20;3.00;;;19.80;1.00;;;;;;5015280;28;20218;-90
2023/08/02 07:25:15;;;;;;;5.55;3.03;;;19.80;1.00;;;;;;5014393;28;20662;-89
2023/08/02 07:27:42;;;;;;;6.70;2.60;;;19.90;99.90;;;;;;5008859;28;20205;-90
2023/08/02 07:30:10;;;;;;;6.93;4.00;;;19.90;99.90;;;;;;5013728;28;20809;-89
2023/08/02 07:32:37;;;;;;;6.93;3.05;;;20.10;99.90;;;;;;5014613;28;20233;-90
2023/08/02 07:35:04;;;;;;;5.18;2.95;;;20.20;1.00;;;;;;5010475;28;20194;-91
2023/08/02 07:37:32;;;;;;;7.72;3.05;;;20.30;1.00;;;;;;5011662;28;20265;-90
2023/08/02 07:39:59;;;;;;;5.40;2.90;;;20.40;1.00;;;;;;5015636;28;20198;-89
2023/08/02 07:42:26;;;;;;;5.55;2.72;;;20.50;99.90;;;;;;5010825;28;20229;-89
2023/08/02 07:45:07;;;;;;;4.28;2.95;;;20.50;99.90;;;;;;5013269;28;20195;-89
2023/08/02 07:47:33;;;;;;;6.38;3.20;;;20.60;99.90;;;;;;5010047;28;20197;-90
2023/08/02 07:50:00;;;;;;;6.95;3.00;;;20.70;99.90;;;;;;5013006;28;20222;-89
2023/08/02 07:52:27;;;;;;;5.65;3.08;;;20.70;1.00;;;;;;5013281;28;20194;-90
2023/08/02 07:54:56;;;;;;;4.80;3.05;;;20.80;99.90;;;;;;5008484;28;20198;-90
2023/08/02 07:57:25;;;;;;;8.93;4.90;;;21.00;1.00;;;;;;5008663;28;20289;-90
2023/08/02 07:59:52;;;;;;;4.70;2.47;;;21.20;1.00;;;;;;5014125;28;20198;-90
2023/08/02 08:02:19;;;;;;;6.03;3.25;;;21.30;1.00;;;;;;5011187;28;20201;-89
2023/08/02 08:04:45;;;;;;;3.05;2.63;;;21.60;99.90;;;;;;5009824;28;20194;-89
2023/08/02 08:07:13;;;;;;;5.78;2.60;;;21.90;99.90;;;;;;5013811;28;20285;-90
2023/08/02 08:09:40;;;;;;;6.45;3.17;;;22.00;13.70;;;;;;5012916;28;20293;-90
2023/08/02 08:12:09;;;;;;;11.38;3.10;;;22.20;1.00;;;;;;5005987;28;20730;-89
2023/08/02 08:14:36;;;;;;;7.47;4.50;;;22.20;1.00;;;;;;5014028;28;20264;-89
2023/08/02 08:17:04;;;;;;;4.03;2.65;;;22.30;1.00;;;;;;5006416;28;20204;-90
2023/08/02 08:19:32;;;;;;;5.15;2.28;;;22.20;1.00;;;;;;5009187;28;20614;-89
2023/08/02 08:21:59;;;;;;;5.32;2.33;;;22.20;1.00;;;;;;5010154;28;20272;-89
2023/08/02 08:24:26;;;;;;;6.53;5.28;;;22.30;1.00;;;;;;5010573;28;20702;-89
2023/08/02 08:26:54;;;;;;;6.10;2.30;;;22.60;99.90;;;;;;5009758;28;20210;-90
2023/08/02 08:29:23;;;;;;;8.32;2.95;;;22.80;99.90;;;;;;5013839;28;20206;-89
2023/08/02 08:31:49;;;;;;;9.57;2.78;;;23.10;99.90;;;;;;5014195;28;20202;-90
2023/08/02 08:34:16;;;;;;;5.47;2.90;;;23.60;99.90;;;;;;5013029;28;20248;-89
2023/08/02 08:36:43;;;;;;;5.15;2.50;;;23.80;1.00;;;;;;5003453;28;20209;-91
2023/08/02 08:39:10;;;;;;;5.32;2.03;;;23.90;1.00;;;;;;5013641;28;20562;-90
2023/08/02 08:41:37;;;;;;;5.85;3.45;;;24.10;1.00;;;;;;5013288;28;20560;-89
2023/08/02 08:44:04;;;;;;;5.28;2.38;;;24.50;1.00;;;;;;5013697;28;20224;-88
2023/08/02 08:46:34;;;;;;;7.22;2.15;;;24.80;1.00;;;;;;5010392;28;20194;-90
2023/08/02 08:49:01;;;;;;;9.68;2.40;;;24.90;1.00;;;;;;5009969;28;20204;-88
2023/08/02 08:51:31;;;;;;;5.15;2.58;;;24.90;1.00;;;;;;5009575;28;20209;-90
2023/08/02 08:54:05;;;;;;;3.67;1.52;;;24.80;1.00;;;;;;5011694;28;20194;-90
2023/08/02 08:56:36;;;;;;;4.15;1.90;;;24.80;1.00;;;;;;5005649;28;20206;-88
2023/08/02 08:59:04;;;;;;;5.55;2.42;;;24.60;1.00;;;;;;5011366;28;20213;-89
2023/08/02 09:01:33;;;;;;;6.07;2.05;;;24.60;1.00;;;;;;5012549;28;20293;-89
2023/08/02 09:04:00;;;;;;;3.25;2.20;;;24.70;1.00;;;;;;5005652;28;20218;-88
2023/08/02 09:06:27;;;;;;;6.40;3.10;;;24.80;1.00;;;;;;5012217;28;20206;-88
2023/08/02 09:08:54;;;;;;;3.00;2.22;;;24.60;1.00;;;;;;5011142;28;20289;-89
2023/08/02 09:11:21;;;;;;;6.63;2.28;;;24.40;1.00;;;;;;5010041;28;20646;-89
2023/08/02 09:13:48;;;;;;;3.45;2.00;;;24.20;1.00;;;;;;5011049;28;20190;-89
2023/08/02 09:16:16;;;;;;;5.50;2.30;;;24.30;1.00;;;;;;5011771;28;20195;-88
2023/08/02 09:18:46;;;;;;;2.50;1.73;;;24.40;1.00;;;;;;5013563;28;20198;-89
2023/08/02 09:21:15;;;;;;;6.18;2.10;;;24.50;1.00;;;;;;5010698;28;20210;-88
2023/08/02 09:23:46;;;;;;;4.70;2.20;;;24.30;1.00;;;;;;5009412;28;20215;-89
2023/08/02 09:26:15;;;;;;;4.30;2.30;;;24.00;1.00;;;;;;5010697;28;20205;-88
2023/08/02 09:28:57;;;;;;;4.35;2.20;;;23.80;1.00;;;;;;5010585;28;20202;-89
2023/08/02 09:31:24;;;;;;;4.78;2.13;;;23.80;1.00;;;;;;5006203;28;20209;-89
2023/08/02 09:33:54;;;;;;;3.00;1.90;;;23.80;1.00;;;;;;5007179;28;20200;-90
2023/08/02 09:36:26;;;;;;;4.22;2.03;;;23.80;1.00;;;;;;5006549;28;20211;-90
2023/08/02 09:39:01;;;;;;;2.95;1.70;;;23.70;1.00;;;;;;5012323;28;20220;-89
2023/08/02 09:41:29;;;;;;;4.55;2.03;;;23.80;1.00;;;;;;5009709;28;20205;-89
2023/08/02 09:43:56;;;;;;;3.05;2.08;;;23.80;1.00;;;;;;5012966;28;20214;-89
2023/08/02 09:46:26;;;;;;;5.78;1.98;;;23.80;1.00;;;;;;5012121;28;20666;-89
2023/08/02 09:48:55;;;;;;;5.68;2.05;;;23.90;1.00;;;;;;5009192;28;20711;-88
2023/08/02 09:51:21;;;;;;;4.00;2.20;;;24.00;1.00;;;;;;4993856;28;20209;-88
2023/08/02 09:53:54;;;;;;;4.78;2.20;;;24.10;1.00;;;;;;4992258;28;20209;-89
2023/08/02 09:56:23;;;;;;;4.20;2.00;;;24.50;1.00;;;;;;4996221;28;20202;-89
2023/08/02 09:58:53;;;;;;;5.57;2.50;;;24.90;99.90;;;;;;4993485;28;20670;-90
2023/08/02 10:01:22;;;;;;;3.38;2.20;;;24.80;99.90;;;;;;4993330;28;20294;-89
2023/08/02 10:03:52;;;;;;;4.38;2.00;;;24.70;99.90;;;;;;4996942;28;20575;-90
2023/08/02 10:06:22;;;;;;;8.38;2.35;;;24.70;99.90;;;;;;4989343;28;20195;-90
2023/08/02 10:08:49;;;;;;;7.53;2.00;;;24.60;99.90;;;;;;4986308;28;20198;-90
2023/08/02 10:11:16;;;;;;;5.03;2.40;;;24.60;99.90;;;;;;4992344;28;20195;-89
2023/08/02 10:13:46;;;;;;;5.93;1.80;;;24.50;99.90;;;;;;4991453;28;20191;-90
2023/08/02 10:16:15;;;;;;;6.90;2.22;;;24.80;99.90;;;;;;4991588;28;20559;-88
2023/08/02 10:18:43;;;;;;;5.20;2.30;;;25.20;99.90;;;;;;4992107;28;20208;-90
2023/08/02 10:21:11;;;;;;;2.30;1.98;;;25.30;99.90;;;;;;4989331;28;20289;-90
2023/08/02 10:23:40;;;;;;;3.97;1.80;;;25.20;99.90;;;;;;4994745;28;20219;-89
2023/08/02 10:26:07;;;;;;;4.47;1.88;;;25.30;99.90;;;;;;4995531;28;20194;-89
2023/08/02 10:28:35;;;;;;;6.32;2.10;;;25.30;99.90;;;;;;4991057;28;20286;-90
2023/08/02 10:31:07;;;;;;;6.88;2.30;;;25.40;99.90;;;;;;4987562;28;20290;-90
2023/08/02 10:33:33;;;;;;;4.28;2.38;;;25.20;99.90;;;;;;4998106;28;20579;-89
2023/08/02 10:36:02;;;;;;;3.53;2.10;;;25.00;99.90;;;;;;5001748;28;20205;-90
2023/08/02 10:38:49;;;;;;;3.85;2.70;;;24.80;99.90;;;;;;4990545;28;20261;-90
2023/08/02 10:41:17;;;;;;;3.55;1.95;;;24.80;99.90;;;;;;4990852;28;20628;-89
2023/08/02 10:44:13;;;;;;;6.63;2.30;;;24.80;99.90;;;;;;4991444;28;20650;-90
2023/08/02 10:46:40;;;;;;;4.05;1.90;;;24.70;99.90;;;;;;4996514;28;20205;-90
2023/08/02 10:49:41;;;;;;;3.65;1.83;;;24.70;99.90;;;;;;4998218;28;20213;-90
2023/08/02 10:52:32;;;;;;;2.95;1.83;;;24.80;99.90;;;;;;5011699;28;20252;-89
2023/08/02 10:55:12;;;;;;;3.38;1.70;;;25.30;99.90;;;;;;4987014;28;20198;-90
2023/08/02 10:57:40;;;;;;;4.75;1.88;;;25.60;99.90;;;;;;5010059;28;20202;-90
2023/08/02 11:00:17;;;;;;;3.83;1.58;;;25.70;99.90;;;;;;5007560;28;20655;-90
2023/08/02 11:02:48;;;;;;;3.28;1.50;;;25.70;99.90;;;;;;5007869;28;20574;-89
2023/08/02 11:05:19;;;;;;;4.57;1.63;;;26.10;99.90;;;;;;5009515;28;20216;-89
2023/08/02 11:07:59;;;;;;;4.45;1.52;;;26.30;99.90;;;;;;5010154;28;20194;-90
2023/08/02 11:10:27;;;;;;;2.90;1.50;;;26.30;99.90;;;;;;5010012;28;20202;-90
2023/08/02 11:12:55;;;;;;;3.33;2.53;;;26.40;99.90;;;;;;5007703;28;20205;-90
2023/08/02 11:15:22;;;;;;;4.00;1.92;;;26.50;99.90;;;;;;5009764;28;20209;-90
2023/08/02 11:17:54;;;;;;;6.38;3.63;;;26.60;99.90;;;;;;5009689;28;20198;-88
2023/08/02 11:20:25;;;;;;;2.72;2.22;;;26.40;99.90;;;;;;5008697;28;20198;-90
2023/08/02 11:22:52;;;;;;;4.68;3.40;;;25.90;99.90;;;;;;5009499;28;20201;-90
2023/08/02 11:25:20;;;;;;;10.30;2.17;;;25.70;99.90;;;;;;5012219;28;20214;-88
2023/08/02 11:27:48;;;;;;;10.23;2.38;;;25.60;99.90;;;;;;5012996;28;20198;-90
2023/08/02 11:30:21;;;;;;;3.10;1.70;;;25.60;99.90;;;;;;5011530;28;20201;-89
2023/08/02 11:32:49;;;;;;;4.47;1.88;;;25.70;99.90;;;;;;5014579;28;20700;-89
2023/08/02 11:35:17;;;;;;;2.38;1.30;;;25.70;99.90;;;;;;5013837;28;20286;-89
2023/08/02 11:37:44;;;;;;;2.72;1.55;;;25.80;99.90;;;;;;5014479;28;20202;-89
2023/08/02 11:40:11;;;;;;;3.85;1.60;;;25.90;99.90;;;;;;5009889;28;20569;-90
2023/08/02 11:42:50;;;;;;;1.75;1.30;;;25.80;99.90;;;;;;5013727;28;20281;-90
2023/08/02 11:45:28;;;;;;;2.88;1.42;;;25.60;99.90;;;;;;5010077;28;20762;-90
2023/08/02 11:47:55;;;;;;;2.72;1.80;;;25.40;99.90;;;;;;5011245;28;20194;-90
2023/08/02 11:50:25;;;;;;;12.38;2.50;;;25.60;99.90;;;;;;5005863;28;20234;-90
2023/08/02 11:52:51;;;;;;;2.38;1.42;;;25.70;99.90;;;;;;5014308;28;20234;-89
2023/08/02 11:55:20;;;;;;;5.43;2.00;;;25.90;99.90;;;;;;5013765;28;20194;-89
2023/08/02 11:57:48;;;;;;;3.22;1.42;;;26.20;99.90;;;;;;5007598;28;20195;-90
2023/08/02 12:00:16;;;;;;;3.17;1.10;;;26.50;99.90;;;;;;5014529;28;20201;-90
2023/08/02 12:02:43;;;;;;;3.42;1.42;;;26.60;99.90;;;;;;5007788;28;20202;-89
2023/08/02 12:05:20;;;;;;;4.95;1.50;;;26.40;99.90;;;;;;5011287;28;20587;-89
2023/08/02 12:07:46;;;;;;;10.98;2.00;;;26.40;99.90;;;;;;5013652;28;20193;-89
2023/08/02 12:10:28;;;;;;;2.28;1.20;;;26.50;99.90;;;;;;5013081;28;20719;-89
2023/08/02 12:12:56;;;;;;;2.92;1.30;;;26.80;99.90;;;;;;5001910;28;20203;-89
2023/08/02 12:15:23;;;;;;;4.80;1.33;;;26.80;99.90;;;;;;5013224;28;20206;-88
2023/08/02 12:18:03;;;;;;;4.70;1.60;;;26.70;99.90;;;;;;5011474;28;20194;-89
2023/08/02 12:20:30;;;;;;;2.88;1.40;;;26.70;99.90;;;;;;5012004;28;20206;-89
2023/08/02 12:22:57;;;;;;;1.88;1.45;;;27.10;99.90;;;;;;5014156;28;20212;-88
2023/08/02 12:25:24;;;;;;;4.25;1.40;;;27.20;99.90;;;;;;5011603;28;20781;-89
2023/08/02 12:28:05;;;;;;;4.80;1.35;;;27.20;99.90;;;;;;5009135;28;20198;-89
2023/08/02 12:30:33;;;;;;;10.63;1.83;;;27.10;99.90;;;;;;5010329;28;20206;-89
2023/08/02 12:33:00;;;;;;;3.20;1.33;;;27.00;99.90;;;;;;5013034;28;20206;-87
2023/08/02 12:35:27;;;;;;;3.50;1.38;;;26.70;99.90;;;;;;5012017;28;20191;-89
2023/08/02 12:37:54;;;;;;;3.17;1.50;;;26.30;99.90;;;;;;5010350;28;20194;-89
2023/08/02 12:40:20;;;;;;;2.63;1.45;;;26.10;99.90;;;;;;5011806;28;20212;-89
2023/08/02 12:42:47;;;;;;;12.95;2.20;;;26.00;99.90;;;;;;5003713;28;20303;-89
2023/08/02 12:45:15;;;;;;;4.20;1.45;;;26.00;99.90;;;;;;5008004;28;20210;-88
2023/08/02 12:47:42;;;;;;;2.25;1.30;;;25.90;99.90;;;;;;5008324;28;20746;-89
2023/08/02 12:50:10;;;;;;;2.85;1.50;;;25.80;99.90;;;;;;5010727;28;20740;-90
2023/08/02 12:52:37;;;;;;;2.30;1.25;;;26.00;99.90;;;;;;5009686;28;20197;-90
2023/08/02 12:55:03;;;;;;;9.32;1.50;;;26.20;99.90;;;;;;5008622;28;21142;-89